Time;durP1;ratioP1;P1;durP2;ratioP2;P2;SDS_P1;SDS_P2;PMS_P1;PMS_P2;Temp;Humidity;BMP_temperature;BMP_pressure;BME280_temperature;BME280_humidity;BME280_pressure;Samples;Min_cycle;Max_cycle;Signal;HPM_P1;HPM_P2
2021/12/23 00:00:09;;;;;;;67.87;45.50;;;;;;;0.21;50.34;101034.97;4293871;33;20312;-88
2021/12/23 00:02:38;;;;;;;63.97;43.65;;;;;;;0.67;49.14;101035.88;4288278;33;20284;-88
2021/12/23 00:05:08;;;;;;;66.45;45.58;;;;;;;0.65;49.01;101032.34;4287616;33;20313;-87
2021/12/23 00:07:35;;;;;;;71.82;47.25;;;;;;;0.61;49.12;101031.25;4279914;33;20397;-88
2021/12/23 00:10:06;;;;;;;78.95;49.28;;;;;;;0.56;49.20;101021.47;4284585;33;20313;-88
2021/12/23 00:12:39;;;;;;;82.97;49.85;;;;;;;0.49;49.35;101019.25;4276781;33;20297;-88
2021/12/23 00:15:15;;;;;;;75.35;49.85;;;;;;;0.52;49.15;101022.91;4278801;33;20365;-88
2021/12/23 00:17:56;;;;;;;74.00;48.95;;;;;;;0.33;49.46;101018.09;4275722;33;20304;-87
2021/12/23 00:25:39;;;;;;;76.28;49.78;;;;;;;0.36;49.21;101003.03;4279731;33;20320;-87
2021/12/23 00:28:05;;;;;;;85.75;52.60;;;;;;;0.53;48.79;100998.31;4283615;33;20341;-88
2021/12/23 00:30:32;;;;;;;86.87;52.47;;;;;;;0.57;48.40;100998.66;4295894;33;20287;-88
2021/12/23 00:32:59;;;;;;;79.32;51.85;;;;;;;0.04;49.47;100997.19;4294861;33;20390;-87
2021/12/23 00:35:26;;;;;;;78.33;51.27;;;;;;;-0.19;50.59;101009.03;4302202;33;20373;-87
2021/12/23 00:38:00;;;;;;;78.53;51.22;;;;;;;0.10;49.73;101007.84;4293467;33;20303;-88
2021/12/23 00:40:27;;;;;;;77.17;50.87;;;;;;;0.18;49.44;100996.56;3983777;33;10001458;-86
2021/12/23 00:42:54;;;;;;;72.95;48.28;;;;;;;-0.06;50.23;101001.56;4285582;33;20365;-87
2021/12/23 00:45:22;;;;;;;67.10;47.70;;;;;;;0.03;49.59;101000.47;4281734;33;20291;-86
2021/12/23 00:47:49;;;;;;;65.62;47.22;;;;;;;-0.10;49.99;100994.44;4299371;32;20366;-86
2021/12/23 00:50:16;;;;;;;65.27;45.03;;;;;;;-0.03;50.04;100996.72;4297005;33;21077;-86
2021/12/23 00:52:43;;;;;;;66.93;46.72;;;;;;;-0.13;49.69;100996.75;4294051;33;20299;-87
2021/12/23 00:55:11;;;;;;;64.72;45.83;;;;;;;0.19;49.26;100998.31;4301057;33;20291;-87
2021/12/23 00:57:40;;;;;;;71.40;46.33;;;;;;;-0.09;49.97;100995.34;4295496;32;20328;-86
2021/12/23 01:00:10;;;;;;;67.50;46.72;;;;;;;0.03;49.61;100988.63;4305573;32;20653;-87
2021/12/23 01:02:42;;;;;;;65.32;46.72;;;;;;;0.08;49.08;100994.09;4301083;32;20364;-87
2021/12/23 01:05:10;;;;;;;67.87;46.85;;;;;;;-0.09;49.84;100991.16;4296803;33;20302;-87
2021/12/23 01:07:37;;;;;;;64.78;46.45;;;;;;;-0.03;49.15;100986.53;4285929;33;20337;-86
2021/12/23 01:10:05;;;;;;;67.70;46.75;;;;;;;-0.31;50.20;100977.53;4298862;32;20368;-86
2021/12/23 01:12:40;;;;;;;66.53;46.20;;;;;;;-0.33;50.76;100976.53;4300896;33;20353;-87
2021/12/23 01:18:07;;;;;;;70.75;48.20;;;;;;;-0.82;51.50;100980.31;4287049;33;20320;-86
2021/12/23 01:20:37;;;;;;;84.75;52.83;;;;;;;-0.36;50.17;100976.28;4291619;33;20372;-86
2021/12/23 01:23:05;;;;;;;74.55;50.60;;;;;;;-0.48;50.70;100972.03;4296824;33;20344;-86
2021/12/23 01:25:33;;;;;;;72.50;50.15;;;;;;;-0.37;50.18;100969.44;4298854;33;20279;-86
2021/12/23 01:28:01;;;;;;;75.12;49.55;;;;;;;-0.65;50.90;100974.00;4299824;33;20347;-87
2021/12/23 01:30:28;;;;;;;74.22;48.45;;;;;;;-0.56;50.43;100965.44;4282263;33;20297;-86
2021/12/23 01:32:56;;;;;;;78.35;50.08;;;;;;;-0.12;48.62;100967.12;4275369;33;20311;-86
2021/12/23 01:35:25;;;;;;;76.62;49.92;;;;;;;-0.43;49.73;100968.94;4304604;33;20275;-86
2021/12/23 01:37:53;;;;;;;71.57;47.95;;;;;;;-0.28;49.23;100967.59;4278749;33;20346;-86
2021/12/23 01:40:20;;;;;;;70.40;47.15;;;;;;;-0.26;48.68;100966.03;4283545;33;20667;-87
2021/12/23 01:42:48;;;;;;;69.35;47.25;;;;;;;-0.33;49.16;100963.81;4290071;33;20315;-87
2021/12/23 01:45:17;;;;;;;65.45;46.37;;;;;;;-0.05;48.50;100957.50;4303420;32;20278;-87
2021/12/23 01:47:44;;;;;;;65.45;46.55;;;;;;;-0.39;49.59;100963.31;4288231;33;20843;-86
2021/12/23 01:50:15;;;;;;;66.12;47.03;;;;;;;-0.20;49.14;100956.34;4294054;33;20350;-86
2021/12/23 01:52:42;;;;;;;67.00;47.20;;;;;;;-0.04;48.39;100954.19;4295840;33;20293;-86
2021/12/23 01:55:10;;;;;;;68.18;47.30;;;;;;;-0.32;49.16;100950.31;4292580;33;20309;-86
2021/12/23 01:57:39;;;;;;;67.97;46.28;;;;;;;-0.17;48.38;100946.41;4283109;33;21041;-86
2021/12/23 02:00:10;;;;;;;64.15;45.83;;;;;;;-0.35;48.44;100939.88;4282644;33;20309;-87
2021/12/23 02:02:39;;;;;;;66.45;46.35;;;;;;;-0.43;49.10;100935.88;4265575;33;20327;-85
2021/12/23 02:05:08;;;;;;;72.53;47.08;;;;;;;-0.25;48.76;100937.31;4287546;33;20590;-85
2021/12/23 02:07:36;;;;;;;68.18;47.28;;;;;;;0.02;47.98;100940.16;4284109;33;20358;-87
2021/12/23 02:10:05;;;;;;;66.93;46.88;;;;;;;-0.29;48.31;100930.19;4288269;33;20309;-87
2021/12/23 02:12:33;;;;;;;69.00;47.80;;;;;;;-0.21;48.20;100924.03;4262316;33;20357;-87
2021/12/23 02:15:01;;;;;;;68.07;47.27;;;;;;;-0.19;48.23;100927.59;4285075;33;20296;-86
2021/12/23 02:17:28;;;;;;;70.37;47.17;;;;;;;-0.34;48.55;100932.41;4264628;33;20747;-88
2021/12/23 02:19:55;;;;;;;69.85;46.78;;;;;;;-0.21;47.92;100929.13;4282550;33;20312;-86
2021/12/23 02:22:22;;;;;;;65.07;46.35;;;;;;;-0.18;48.06;100924.28;4279522;33;20352;-87
2021/12/23 02:24:49;;;;;;;63.57;45.60;;;;;;;-0.60;49.25;100922.75;4279774;33;20284;-88
2021/12/23 02:27:16;;;;;;;64.93;45.58;;;;;;;-0.42;48.41;100919.84;4274501;33;20293;-88
2021/12/23 02:29:43;;;;;;;68.40;46.15;;;;;;;-0.53;48.96;100922.47;4288380;33;20308;-87
2021/12/23 02:32:10;;;;;;;67.28;45.42;;;;;;;-0.46;48.29;100911.09;4273449;33;20305;-88
2021/12/23 02:34:37;;;;;;;65.87;45.30;;;;;;;-0.37;48.20;100908.37;4289001;33;20294;-88
2021/12/23 02:37:07;;;;;;;62.60;43.85;;;;;;;-0.62;49.13;100909.03;4277057;33;20325;-88
2021/12/23 02:39:34;;;;;;;63.33;44.50;;;;;;;-0.58;48.62;100905.94;4277777;33;20326;-87
2021/12/23 02:42:03;;;;;;;61.95;44.92;;;;;;;-0.48;48.50;100902.44;4271388;33;20308;-88
2021/12/23 02:44:30;;;;;;;61.17;43.87;;;;;;;-0.23;48.17;100900.12;4266677;33;20291;-85
2021/12/23 02:46:57;;;;;;;62.80;44.23;;;;;;;-0.31;48.38;100901.22;4279047;33;20313;-87
2021/12/23 02:49:24;;;;;;;69.50;45.72;;;;;;;-0.40;48.50;100895.44;4279666;33;20286;-88
2021/12/23 02:51:52;;;;;;;65.75;45.38;;;;;;;-0.36;48.40;100894.87;4278727;33;20299;-87
2021/12/23 02:54:19;;;;;;;67.25;44.58;;;;;;;-0.53;48.93;100889.41;4266582;33;20700;-87
2021/12/23 02:56:46;;;;;;;70.10;46.17;;;;;;;-0.47;48.41;100878.81;4295794;33;20293;-86
2021/12/23 02:59:13;;;;;;;64.47;44.83;;;;;;;-0.48;48.64;100883.03;4297391;32;20283;-86
2021/12/23 03:01:40;;;;;;;64.30;45.00;;;;;;;-0.44;48.64;100880.72;4292480;32;20275;-88
2021/12/23 03:04:08;;;;;;;64.22;44.47;;;;;;;-0.52;48.41;100875.91;4286641;33;20349;-88
2021/12/23 03:06:35;;;;;;;64.80;45.10;;;;;;;-0.36;48.34;100879.62;4275808;33;20344;-86
2021/12/23 03:09:03;;;;;;;63.03;44.28;;;;;;;-0.28;48.01;100876.00;4287994;33;20320;-87
2021/12/23 03:11:32;;;;;;;63.47;43.97;;;;;;;-0.85;49.43;100879.28;4285334;33;20413;-88
2021/12/23 03:13:59;;;;;;;61.37;43.30;;;;;;;-0.35;48.39;100871.22;4291979;33;20290;-88
2021/12/23 03:16:31;;;;;;;61.47;44.10;;;;;;;-0.22;47.81;100866.31;4286007;33;20333;-87
2021/12/23 03:18:58;;;;;;;64.93;43.97;;;;;;;-0.68;48.89;100872.94;4296754;33;20286;-87
2021/12/23 03:21:25;;;;;;;65.35;45.03;;;;;;;-1.03;50.04;100868.56;4286586;33;20383;-88
2021/12/23 03:23:52;;;;;;;62.88;44.92;;;;;;;-0.77;49.01;100864.63;4263669;33;21027;-88
2021/12/23 03:26:19;;;;;;;63.92;44.03;;;;;;;-0.78;49.18;100870.47;4273732;33;21042;-87
2021/12/23 03:28:47;;;;;;;60.03;43.05;;;;;;;-0.57;48.60;100867.06;4276319;33;20296;-86
2021/12/23 03:31:14;;;;;;;66.28;43.47;;;;;;;-0.57;48.87;100869.59;4279186;33;20302;-86
2021/12/23 03:33:41;;;;;;;65.70;45.47;;;;;;;-0.41;48.37;100868.22;4280408;33;20276;-86
2021/12/23 03:36:08;;;;;;;57.92;42.53;;;;;;;-0.64;49.21;100863.91;4280833;33;20288;-86
2021/12/23 03:38:35;;;;;;;63.45;43.47;;;;;;;-0.53;48.75;100853.78;4283759;33;20741;-87
2021/12/23 03:41:03;;;;;;;61.92;44.35;;;;;;;-0.72;49.08;100856.59;4276847;33;20653;-87
2021/12/23 03:43:33;;;;;;;59.67;42.45;;;;;;;-0.63;49.17;100856.41;4277657;33;20312;-88
2021/12/23 03:46:03;;;;;;;59.63;42.88;;;;;;;-0.78;49.46;100865.41;4275477;33;20298;-88
2021/12/23 03:48:32;;;;;;;58.60;42.40;;;;;;;-0.28;48.45;100846.38;4287527;33;20314;-87
2021/12/23 03:50:59;;;;;;;60.72;43.42;;;;;;;-0.25;48.32;100853.34;4270443;33;20385;-87
2021/12/23 03:53:26;;;;;;;60.17;41.83;;;;;;;-0.26;48.59;100854.97;4272479;33;20300;-87
2021/12/23 03:55:53;;;;;;;60.70;43.20;;;;;;;-0.47;49.20;100854.25;4274890;33;20395;-87
2021/12/23 03:58:21;;;;;;;62.13;42.60;;;;;;;-0.27;48.98;100849.78;4281784;33;20313;-87
2021/12/23 04:00:48;;;;;;;60.80;42.33;;;;;;;-0.37;49.03;100852.44;4286402;33;20291;-87
2021/12/23 04:03:16;;;;;;;58.92;42.90;;;;;;;-0.49;49.66;100850.72;4283612;33;20291;-86
2021/12/23 04:05:43;;;;;;;65.25;43.58;;;;;;;-0.36;49.63;100844.91;4295795;33;20313;-88
2021/12/23 04:08:19;;;;;;;63.97;44.17;;;;;;;-0.21;49.15;100847.72;4281246;33;20277;-86
2021/12/23 04:10:46;;;;;;;63.50;43.40;;;;;;;-0.52;50.12;100840.31;4274862;33;20294;-86
2021/12/23 04:13:13;;;;;;;64.30;43.15;;;;;;;-0.57;50.17;100839.09;4270482;33;20306;-88
2021/12/23 04:15:40;;;;;;;67.33;44.33;;;;;;;-0.88;51.18;100832.41;4253337;33;20396;-88
2021/12/23 04:18:07;;;;;;;67.05;43.67;;;;;;;-0.25;49.53;100840.63;4272167;33;20288;-87
2021/12/23 04:20:45;;;;;;;66.53;44.13;;;;;;;-0.34;49.96;100834.84;4278567;33;20960;-86
2021/12/23 04:23:12;;;;;;;62.38;43.25;;;;;;;-0.16;49.62;100831.16;4278333;33;20301;-86
2021/12/23 04:25:39;;;;;;;66.20;44.55;;;;;;;-0.38;49.91;100837.91;4279432;33;20334;-88
2021/12/23 04:28:06;;;;;;;69.18;45.33;;;;;;;-0.07;49.05;100831.81;4273102;33;20363;-86
2021/12/23 04:30:34;;;;;;;68.37;43.93;;;;;;;-0.42;50.26;100826.63;4285338;33;20344;-88
2021/12/23 04:33:01;;;;;;;66.45;43.08;;;;;;;0.06;49.05;100822.53;4287075;33;20334;-89
2021/12/23 04:35:28;;;;;;;64.25;43.83;;;;;;;-0.48;50.76;100811.81;4263019;33;20291;-89
2021/12/23 04:37:55;;;;;;;60.88;42.25;;;;;;;-0.37;50.12;100814.28;4284431;33;20319;-88
2021/12/23 04:40:22;;;;;;;60.92;43.38;;;;;;;-0.35;49.91;100817.78;4284778;33;20752;-89
2021/12/23 04:42:49;;;;;;;65.40;42.75;;;;;;;-0.43;50.31;100819.78;4281310;33;20371;-87
2021/12/23 04:45:16;;;;;;;63.50;42.17;;;;;;;-0.57;50.19;100813.66;4281131;33;20285;-87
2021/12/23 04:47:44;;;;;;;60.70;41.80;;;;;;;-0.44;50.24;100812.94;4281521;33;20311;-89
2021/12/23 04:50:12;;;;;;;61.47;41.42;;;;;;;-0.38;49.94;100817.56;4278317;33;20644;-88
2021/12/23 04:52:41;;;;;;;56.90;40.72;;;;;;;-0.33;49.75;100818.81;4286680;33;20284;-88
2021/12/23 04:55:10;;;;;;;58.53;40.45;;;;;;;-0.36;49.53;100810.94;4260484;33;20297;-87
2021/12/23 04:57:37;;;;;;;57.03;39.35;;;;;;;-0.03;49.03;100810.91;4288801;32;20297;-87
2021/12/23 05:00:07;;;;;;;55.33;39.67;;;;;;;-0.41;49.76;100817.38;4267530;33;20310;-90
2021/12/23 05:02:34;;;;;;;59.72;40.83;;;;;;;-0.37;49.60;100819.34;4267600;33;20361;-87
2021/12/23 05:05:01;;;;;;;60.67;41.40;;;;;;;-0.45;50.30;100820.44;4265166;33;20301;-89
2021/12/23 05:07:28;;;;;;;59.00;41.63;;;;;;;-0.50;50.25;100820.97;4299495;33;20337;-87
2021/12/23 05:09:55;;;;;;;62.92;41.20;;;;;;;-0.24;49.71;100811.88;4262527;33;20290;-88
2021/12/23 05:12:23;;;;;;;55.28;39.92;;;;;;;-0.32;50.30;100812.94;4281446;33;20291;-86
2021/12/23 05:14:50;;;;;;;53.97;38.97;;;;;;;-0.18;49.76;100812.31;4272718;33;20326;-87
2021/12/23 05:17:17;;;;;;;56.22;39.42;;;;;;;-0.39;50.13;100810.72;4284261;33;20289;-88
2021/12/23 05:19:44;;;;;;;55.08;39.17;;;;;;;0.03;49.42;100802.81;4271031;33;20303;-87
2021/12/23 05:22:13;;;;;;;53.78;38.58;;;;;;;-0.19;49.85;100800.38;4270605;33;20302;-89
2021/12/23 05:24:40;;;;;;;57.28;39.25;;;;;;;0.12;49.25;100797.53;4277224;33;20298;-88
2021/12/23 05:27:07;;;;;;;54.53;39.22;;;;;;;-0.27;49.82;100792.16;4255167;33;20325;-87
2021/12/23 05:29:34;;;;;;;56.22;38.30;;;;;;;-0.28;50.17;100794.62;4305855;33;20288;-87
2021/12/23 05:32:01;;;;;;;53.08;38.85;;;;;;;-0.65;51.27;100791.84;4297050;33;20287;-88
2021/12/23 05:34:28;;;;;;;51.83;37.28;;;;;;;-0.21;50.21;100807.00;4294280;33;20805;-88
2021/12/23 05:36:55;;;;;;;51.47;38.00;;;;;;;-0.01;49.75;100798.28;4298607;33;20915;-87
2021/12/23 05:39:22;;;;;;;52.95;38.25;;;;;;;-0.30;50.63;100803.78;4299440;33;20317;-88
2021/12/23 05:41:49;;;;;;;51.07;37.90;;;;;;;-0.18;50.85;100822.50;4309580;32;20406;-88
2021/12/23 05:44:16;;;;;;;55.03;38.85;;;;;;;-0.10;50.79;100813.75;4299607;32;21330;-88
2021/12/23 05:46:43;;;;;;;54.22;38.67;;;;;;;0.05;50.93;100820.78;4285556;32;20691;-89
2021/12/23 05:49:10;;;;;;;53.08;38.03;;;;;;;0.07;51.16;100809.06;4301411;33;20774;-85
2021/12/23 05:51:37;;;;;;;56.95;39.13;;;;;;;-0.05;51.58;100815.00;4280145;33;20309;-87
2021/12/23 05:54:05;;;;;;;54.37;38.97;;;;;;;-0.15;52.73;100801.50;4294117;33;20382;-87
2021/12/23 05:56:32;;;;;;;53.05;37.33;;;;;;;0.00;52.38;100792.44;4301724;33;20358;-85
2021/12/23 05:59:00;;;;;;;49.95;37.00;;;;;;;0.09;52.61;100808.38;4300962;33;20348;-88
2021/12/23 06:01:27;;;;;;;52.83;38.22;;;;;;;0.03;53.12;100796.84;3983260;33;10001361;-86
2021/12/23 06:03:54;;;;;;;52.50;38.25;;;;;;;0.15;52.73;100797.75;4279945;33;20289;-85
2021/12/23 06:06:21;;;;;;;53.38;38.13;;;;;;;0.38;52.56;100792.69;4280092;33;20312;-83
2021/12/23 06:08:48;;;;;;;53.78;39.10;;;;;;;0.37;52.48;100787.47;4283893;32;20325;-87
2021/12/23 06:11:16;;;;;;;57.33;38.78;;;;;;;0.44;52.83;100782.91;4293607;33;20683;-86
2021/12/23 06:13:43;;;;;;;53.45;37.95;;;;;;;0.60;52.65;100784.00;4299057;32;20361;-87
2021/12/23 06:16:10;;;;;;;52.15;37.72;;;;;;;0.93;51.50;100781.28;4317943;32;20303;-83
2021/12/23 06:18:37;;;;;;;51.20;37.55;;;;;;;0.93;51.67;100781.28;4302040;33;20469;-87
2021/12/23 06:21:04;;;;;;;50.78;36.92;;;;;;;1.03;51.47;100781.94;4290771;33;20311;-76
2021/12/23 06:23:31;;;;;;;50.53;36.73;;;;;;;0.88;52.07;100785.16;4306608;32;20289;-80
2021/12/23 06:25:58;;;;;;;50.13;36.23;;;;;;;1.25;51.13;100785.16;4308593;33;20318;-81
2021/12/23 06:28:25;;;;;;;49.63;36.22;;;;;;;1.27;50.86;100777.59;4300691;33;20306;-79
2021/12/23 06:30:52;;;;;;;50.03;37.08;;;;;;;1.40;50.41;100772.53;4295804;32;20303;-80
2021/12/23 06:33:20;;;;;;;49.83;37.72;;;;;;;1.22;50.78;100769.66;4306914;33;20684;-80
2021/12/23 06:35:50;;;;;;;48.67;36.95;;;;;;;1.17;51.00;100771.88;4292194;33;20509;-79
2021/12/23 06:38:17;;;;;;;51.83;36.50;;;;;;;1.23;50.88;100779.06;4308203;32;20384;-80
2021/12/23 06:40:44;;;;;;;49.50;38.17;;;;;;;1.37;50.39;100780.91;4313843;32;20691;-81
2021/12/23 06:43:11;;;;;;;52.45;38.10;;;;;;;1.21;50.57;100772.97;4293168;33;20344;-80
2021/12/23 06:45:38;;;;;;;52.75;37.15;;;;;;;1.61;49.58;100780.78;4316092;32;21420;-79
2021/12/23 06:48:05;;;;;;;51.55;37.83;;;;;;;1.32;50.38;100782.25;4300938;33;20288;-81
2021/12/23 06:50:32;;;;;;;50.78;38.05;;;;;;;1.30;50.59;100777.81;4288448;33;21166;-80
2021/12/23 06:52:59;;;;;;;49.75;35.92;;;;;;;1.47;50.25;100781.50;4291572;33;20287;-81
2021/12/23 06:55:26;;;;;;;51.03;36.28;;;;;;;1.49;49.54;100779.94;4293257;33;20344;-80
2021/12/23 06:57:55;;;;;;;50.08;36.35;;;;;;;1.30;50.29;100778.69;4288786;33;20307;-80
2021/12/23 07:00:24;;;;;;;51.65;37.05;;;;;;;1.22;51.00;100778.97;4293804;32;20351;-80
2021/12/23 07:02:52;;;;;;;46.50;35.40;;;;;;;1.30;50.64;100778.69;4300896;33;20287;-80
2021/12/23 07:05:19;;;;;;;48.00;34.77;;;;;;;1.45;50.51;100783.97;4278788;33;20314;-80
2021/12/23 07:07:57;;;;;;;46.03;33.97;;;;;;;1.79;49.30;100782.00;4291602;33;20336;-81
2021/12/23 07:10:26;;;;;;;50.05;35.38;;;;;;;1.59;50.06;100772.13;4291751;33;20685;-81
2021/12/23 07:12:55;;;;;;;90.23;38.20;;;;;;;1.61;49.93;100773.13;4277332;33;20287;-79
2021/12/23 07:15:25;;;;;;;48.42;34.78;;;;;;;1.69;50.17;100768.50;4281399;33;20816;-78
2021/12/23 07:17:54;;;;;;;49.55;35.20;;;;;;;1.74;49.90;100768.03;4294810;33;20304;-78
2021/12/23 07:20:23;;;;;;;48.00;34.90;;;;;;;1.77;49.77;100773.34;4297212;33;20419;-79
2021/12/23 07:22:51;;;;;;;45.80;34.07;;;;;;;1.55;50.13;100770.16;4269047;33;20342;-81
2021/12/23 07:25:18;;;;;;;47.70;34.33;;;;;;;1.93;49.25;100764.16;4282327;33;20319;-78
2021/12/23 07:27:47;;;;;;;46.25;33.08;;;;;;;1.85;49.45;100761.06;4276766;33;20293;-79
2021/12/23 07:30:18;;;;;;;45.10;33.55;;;;;;;1.61;50.17;100762.91;4281865;33;20275;-79
2021/12/23 07:32:46;;;;;;;42.77;33.47;;;;;;;1.82;49.62;100761.78;4280694;33;20277;-79
2021/12/23 07:35:14;;;;;;;45.85;33.38;;;;;;;1.54;50.43;100766.72;4284317;33;20305;-78
2021/12/23 07:37:43;;;;;;;42.97;32.85;;;;;;;1.52;51.42;100770.81;4265370;33;20298;-79
2021/12/23 07:40:15;;;;;;;46.93;34.53;;;;;;;2.00;49.82;100771.41;4295050;32;20295;-83
2021/12/23 07:42:56;;;;;;;47.75;33.70;;;;;;;1.83;49.83;100762.66;4301181;33;20281;-82
2021/12/23 07:45:26;;;;;;;54.25;33.20;;;;;;;1.89;50.08;100767.28;4288317;33;20309;-81
2021/12/23 07:47:53;;;;;;;53.20;34.45;;;;;;;2.23;49.38;100761.00;4302947;32;20282;-81
2021/12/23 07:50:20;;;;;;;49.77;33.03;;;;;;;1.87;50.40;100756.97;3716760;32;10001347;-78
2021/12/23 07:52:47;;;;;;;60.80;35.17;;;;;;;2.26;49.54;100761.19;4303349;33;20283;-79
2021/12/23 07:55:15;;;;;;;43.90;32.40;;;;;;;2.14;49.96;100752.78;4301632;32;20293;-79
2021/12/23 07:57:42;;;;;;;44.75;32.15;;;;;;;2.40;49.06;100743.34;4287503;32;21182;-79
2021/12/23 08:00:10;;;;;;;43.35;30.95;;;;;;;2.40;48.96;100738.22;4295945;33;20302;-80
2021/12/23 08:02:40;;;;;;;61.17;33.10;;;;;;;2.16;49.30;100743.53;4287480;33;20793;-81
2021/12/23 08:05:08;;;;;;;40.33;30.60;;;;;;;2.26;49.01;100740.75;4309562;32;20311;-87
2021/12/23 08:07:35;;;;;;;42.67;30.70;;;;;;;2.79;47.80;100732.13;4312489;32;20384;-90
2021/12/23 08:10:03;;;;;;;53.25;30.52;;;;;;;2.62;48.30;100731.09;4299168;32;20292;-87
2021/12/23 08:12:30;;;;;;;42.58;31.50;;;;;;;2.57;48.30;100729.94;4300439;33;21189;-85
2021/12/23 08:14:57;;;;;;;41.20;29.80;;;;;;;2.33;49.57;100727.63;4318888;32;20290;-89
2021/12/23 08:17:39;;;;;;;41.13;29.65;;;;;;;2.62;47.88;100731.09;4303871;33;20283;-82
2021/12/23 08:20:13;;;;;;;43.05;31.15;;;;;;;2.73;47.40;100724.97;4303774;33;20308;-81
2021/12/23 08:22:40;;;;;;;41.23;31.30;;;;;;;2.36;48.99;100731.13;4309975;33;20332;-83
2021/12/23 08:25:08;;;;;;;43.33;30.03;;;;;;;2.02;50.39;100723.91;4288341;32;20387;-89
2021/12/23 08:27:35;;;;;;;41.78;30.27;;;;;;;2.67;48.22;100724.59;4300715;32;20325;-81
2021/12/23 08:30:06;;;;;;;39.17;28.75;;;;;;;2.69;47.94;100712.78;4306277;33;20293;-78
2021/12/23 08:32:32;;;;;;;42.58;28.58;;;;;;;2.66;47.97;100712.59;4300657;33;20310;-80
2021/12/23 08:34:59;;;;;;;36.75;27.58;;;;;;;2.38;48.86;100709.13;4300233;32;20299;-81
2021/12/23 08:37:26;;;;;;;39.55;28.08;;;;;;;2.89;47.45;100715.69;4305392;33;20335;-77
2021/12/23 08:39:54;;;;;;;39.53;28.23;;;;;;;2.73;47.27;100714.75;4299671;32;20301;-86
2021/12/23 08:42:21;;;;;;;38.83;28.33;;;;;;;2.94;46.96;100717.75;4301955;33;20375;-83
2021/12/23 08:44:48;;;;;;;37.22;28.38;;;;;;;2.94;47.41;100720.28;4296918;32;20358;-78
2021/12/23 08:47:16;;;;;;;38.77;27.07;;;;;;;3.01;46.78;100719.00;4294131;33;20277;-82
2021/12/23 08:49:44;;;;;;;36.50;25.80;;;;;;;3.25;46.45;100723.03;4303179;33;20764;-82
2021/12/23 08:52:12;;;;;;;38.60;26.00;;;;;;;2.90;47.45;100722.56;4284866;33;20345;-80
2021/12/23 08:54:42;;;;;;;39.63;25.63;;;;;;;3.20;46.32;100709.06;4293004;33;20297;-80
2021/12/23 08:57:10;;;;;;;35.42;24.73;;;;;;;3.13;46.36;100706.94;4307482;32;20454;-85
2021/12/23 08:59:37;;;;;;;43.13;25.00;;;;;;;3.38;45.48;100703.25;4292918;33;20180;-82
2021/12/23 09:02:04;;;;;;;37.17;25.27;;;;;;;3.75;44.33;100700.28;4303954;33;20288;-82
2021/12/23 09:04:33;;;;;;;38.67;24.60;;;;;;;3.53;46.59;100708.37;4299770;33;20340;-83
2021/12/23 09:07:00;;;;;;;34.80;23.77;;;;;;;4.06;43.76;100708.00;4313426;32;20296;-83
2021/12/23 09:09:31;;;;;;;36.08;22.80;;;;;;;3.77;43.90;100698.69;4309320;32;20180;-88
2021/12/23 09:11:58;;;;;;;32.80;22.33;;;;;;;4.11;43.37;100684.37;4297316;33;20172;-82
2021/12/23 09:14:27;;;;;;;32.93;22.47;;;;;;;4.26;42.52;100686.94;4286385;33;20282;-85
2021/12/23 09:16:56;;;;;;;28.42;19.83;;;;;;;4.20;42.59;100677.22;4295945;33;20160;-82
2021/12/23 09:19:23;;;;;;;32.40;19.30;;;;;;;4.20;41.34;100676.34;4278287;33;20275;-81
2021/12/23 09:21:50;;;;;;;30.45;19.45;;;;;;;4.07;41.40;100679.91;4305588;32;20339;-79
2021/12/23 09:24:19;;;;;;;31.17;20.20;;;;;;;3.77;41.56;100667.97;4330184;32;20175;-82
2021/12/23 09:26:54;;;;;;;26.92;18.73;;;;;;;3.91;43.08;100677.28;4296373;32;20225;-82
2021/12/23 09:34:54;;;;;;;40.35;19.58;;;;;;;4.01;40.36;100655.62;4290514;33;20190;-84
2021/12/23 09:37:40;;;;;;;48.00;19.02;;;;;;;3.71;41.22;100646.31;4276703;33;20165;-81
2021/12/23 09:40:08;;;;;;;25.30;16.08;;;;;;;3.77;41.50;100642.34;4293493;33;20846;-83
2021/12/23 09:42:35;;;;;;;26.55;16.42;;;;;;;4.31;40.29;100636.81;4293651;33;20247;-83
2021/12/23 09:45:07;;;;;;;24.87;17.02;;;;;;;3.66;40.41;100645.16;4296972;33;20496;-89
2021/12/23 09:47:35;;;;;;;23.87;17.10;;;;;;;3.68;40.55;100638.47;4300005;33;20199;-82
2021/12/23 09:50:09;;;;;;;29.47;17.83;;;;;;;3.92;40.17;100638.06;4300140;33;20362;-81
2021/12/23 09:52:41;;;;;;;26.60;16.12;;;;;;;3.71;40.09;100633.53;4304885;33;20344;-82
2021/12/23 09:55:11;;;;;;;29.90;17.33;;;;;;;3.43;40.73;100631.06;4295234;33;20348;-82
2021/12/23 09:57:39;;;;;;;24.45;15.95;;;;;;;3.51;40.74;100644.31;4298939;32;20314;-81
2021/12/23 10:00:11;;;;;;;29.08;17.35;;;;;;;3.66;40.58;100645.16;4295314;33;20184;-81
2021/12/23 10:02:41;;;;;;;33.15;16.80;;;;;;;3.93;40.87;100639.84;4305117;33;20187;-82
2021/12/23 10:05:34;;;;;;;53.63;19.45;;;;;;;4.19;39.98;100619.09;4279922;33;20208;-84
2021/12/23 10:08:03;;;;;;;85.50;22.75;;;;;;;4.06;39.19;100611.53;4280882;33;20187;-83
2021/12/23 10:10:44;;;;;;;25.48;15.65;;;;;;;4.02;39.80;100604.50;4295800;33;20294;-83
2021/12/23 10:38:28;;;;;;;25.33;14.77;;;;;;;4.20;38.67;100558.47;4275899;33;20173;-84
2021/12/23 10:41:03;;;;;;;23.73;14.50;;;;;;;4.13;38.93;100549.59;4248944;33;20269;-85
2021/12/23 10:43:36;;;;;;;21.30;14.40;;;;;;;4.27;38.82;100547.75;4245600;33;20175;-85
2021/12/23 10:46:22;;;;;;;20.20;13.73;;;;;;;4.28;38.46;100546.09;4244927;33;20289;-84
2021/12/23 10:49:02;;;;;;;18.50;13.35;;;;;;;3.62;39.06;100535.72;4263240;33;20184;-86
2021/12/23 10:51:46;;;;;;;22.40;13.68;;;;;;;3.46;39.36;100523.75;4276170;33;20326;-84
2021/12/23 11:00:26;;;;;;;24.15;14.60;;;;;;;3.67;39.64;100518.94;4269783;33;20169;-85
2021/12/23 11:03:11;;;;;;;23.18;14.88;;;;;;;3.78;39.52;100516.97;4258003;33;20158;-83
2021/12/23 11:05:50;;;;;;;22.37;14.45;;;;;;;3.76;39.30;100512.56;4266063;33;20900;-83
2021/12/23 11:08:46;;;;;;;19.65;14.15;;;;;;;3.39;39.89;100495.19;4246656;33;20174;-83
2021/12/23 11:37:25;;;;;;;21.02;14.00;;;;;;;3.78;39.24;100434.16;4294750;33;21163;-84
2021/12/23 11:42:33;;;;;;;20.85;14.77;;;;;;;3.93;38.56;100425.59;4309518;32;20348;-84
2021/12/23 11:45:00;;;;;;;21.10;13.93;;;;;;;3.70;39.51;100420.94;4305916;32;20276;-84
2021/12/23 11:47:27;;;;;;;23.77;14.60;;;;;;;3.76;38.39;100410.13;4286081;33;20172;-82
2021/12/23 11:49:54;;;;;;;20.33;12.60;;;;;;;3.92;38.85;100407.56;4291621;33;20313;-86
2021/12/23 11:52:21;;;;;;;19.05;13.07;;;;;;;3.95;38.38;100408.59;4289457;33;20665;-84
2021/12/23 11:54:48;;;;;;;18.43;12.73;;;;;;;3.84;38.51;100406.31;4305197;32;20164;-83
2021/12/23 11:57:17;;;;;;;17.27;12.32;;;;;;;4.11;38.14;100394.03;4307705;32;20196;-86
2021/12/23 11:59:58;;;;;;;17.47;12.07;;;;;;;4.00;37.99;100390.94;4312315;33;20197;-83
2021/12/23 12:02:25;;;;;;;30.58;16.25;;;;;;;3.67;38.68;100398.62;4294149;32;20609;-83
2021/12/23 12:04:59;;;;;;;22.95;14.80;;;;;;;4.01;37.89;100387.56;4301467;33;20190;-82
2021/12/23 12:07:26;;;;;;;17.83;11.93;;;;;;;3.56;38.86;100384.38;4303173;32;20197;-79
2021/12/23 12:10:07;;;;;;;22.27;12.82;;;;;;;3.47;38.47;100376.22;4303220;33;20171;-79
2021/12/23 12:12:37;;;;;;;17.30;11.95;;;;;;;3.84;38.46;100363.66;4307260;33;20264;-80
2021/12/23 12:15:04;;;;;;;19.58;11.70;;;;;;;3.65;38.04;100374.62;4309018;32;20305;-80
2021/12/23 12:17:37;;;;;;;17.20;10.68;;;;;;;3.77;38.05;100360.72;4297895;33;20256;-81
2021/12/23 12:20:22;;;;;;;16.98;11.20;;;;;;;3.84;37.70;100370.47;4299996;33;20191;-79
2021/12/23 12:22:59;;;;;;;15.40;11.45;;;;;;;3.82;37.79;100354.12;4297451;33;20672;-82
2021/12/23 12:25:26;;;;;;;17.10;10.74;;;;;;;3.63;37.67;100355.72;4298928;33;20597;-80
2021/12/23 12:27:56;;;;;;;19.30;11.35;;;;;;;4.17;36.64;100351.66;4313059;32;20583;-84
2021/12/23 12:30:58;;;;;;;19.30;10.85;;;;;;;3.91;37.14;100344.34;4308338;32;20308;-80
2021/12/23 12:33:26;;;;;;;17.10;11.07;;;;;;;3.88;37.26;100344.19;4292632;33;20171;-82
2021/12/23 12:36:04;;;;;;;14.15;11.02;;;;;;;3.72;37.37;100338.28;4310360;32;20176;-80